createdAt,value
2022-09-06T00:01:14.494Z,3.00
2022-09-06T00:03:43.053Z,3.55
2022-09-06T00:06:16.849Z,3.30
2022-09-06T00:08:47.365Z,2.55
2022-09-06T00:11:16.789Z,2.65
2022-09-06T00:13:46.152Z,3.22
2022-09-06T00:16:17.718Z,3.38
2022-09-06T00:18:46.999Z,3.75
2022-09-06T00:21:20.330Z,3.53
2022-09-06T00:26:17.764Z,3.45
2022-09-06T00:28:46.519Z,3.40
2022-09-06T00:31:24.432Z,2.80
2022-09-06T00:33:53.486Z,3.33
2022-09-06T00:36:23.586Z,24.73
2022-09-06T00:38:52.209Z,2.40
2022-09-06T00:41:21.130Z,4.00
2022-09-06T00:43:49.636Z,3.08
2022-09-06T00:46:25.221Z,5.10
2022-09-06T00:49:06.604Z,2.25
2022-09-06T00:51:36.809Z,2.58
2022-09-06T00:54:07.903Z,2.92
2022-09-06T00:56:42.305Z,2.78
2022-09-06T00:59:11.244Z,2.47
2022-09-06T01:01:39.967Z,2.80
2022-09-06T01:04:09.015Z,2.10
2022-09-06T01:06:45.904Z,2.22
2022-09-06T01:09:53.924Z,2.17
2022-09-06T01:12:35.685Z,2.00
2022-09-06T01:15:29.214Z,1.98
2022-09-06T01:18:20.571Z,3.15
2022-09-06T01:21:07.207Z,2.47
2022-09-06T01:23:56.849Z,3.33
2022-09-06T01:26:49.244Z,2.65
2022-09-06T01:29:23.731Z,1.83
2022-09-06T01:32:04.913Z,2.03
2022-09-06T01:34:57.734Z,2.08
2022-09-06T01:37:27.265Z,2.38
2022-09-06T01:39:56.138Z,4.25
2022-09-06T01:42:29.469Z,1.70
2022-09-06T01:45:23.085Z,3.20
2022-09-06T01:48:03.527Z,1.92
2022-09-06T01:51:08.927Z,2.33
2022-09-06T01:54:02.559Z,2.63
2022-09-06T01:56:58.735Z,2.17
2022-09-06T01:59:38.879Z,2.58
2022-09-06T02:02:37.338Z,1.90
2022-09-06T02:05:16.005Z,2.22
2022-09-06T02:07:48.164Z,2.83
2022-09-06T02:10:46.659Z,2.65
2022-09-06T02:13:17.219Z,1.65
2022-09-06T02:15:53.645Z,2.42
2022-09-06T02:18:28.456Z,2.42
2022-09-06T02:21:00.052Z,1.90
2022-09-06T02:23:32.814Z,2.20
2022-09-06T02:26:10.929Z,2.10
2022-09-06T02:28:39.586Z,2.42
2022-09-06T02:31:24.840Z,2.95
2022-09-06T02:33:54.554Z,3.13
2022-09-06T02:36:23.364Z,2.75
2022-09-06T02:38:52.024Z,2.38
2022-09-06T02:41:24.127Z,1.75
2022-09-06T02:43:52.685Z,3.33
2022-09-06T02:46:21.423Z,2.25
2022-09-06T02:48:50.125Z,2.28
2022-09-06T02:51:18.724Z,1.92
2022-09-06T02:53:47.724Z,1.98
2022-09-06T02:56:16.205Z,3.08
2022-09-06T02:58:44.844Z,2.50
2022-09-06T03:01:13.547Z,2.03
2022-09-06T03:03:42.281Z,2.10
2022-09-06T03:06:10.924Z,2.28
2022-09-06T03:08:39.684Z,2.80
2022-09-06T03:11:08.474Z,2.63
2022-09-06T03:13:37.090Z,2.90
2022-09-06T03:16:05.622Z,3.70
2022-09-06T03:18:34.290Z,4.00
2022-09-06T03:21:03.259Z,2.95
2022-09-06T03:23:32.080Z,2.97
2022-09-06T03:26:00.689Z,3.72
2022-09-06T03:28:29.649Z,2.95
2022-09-06T03:30:58.268Z,3.53
2022-09-06T03:33:26.884Z,3.28
2022-09-06T03:35:58.635Z,4.70
2022-09-06T03:38:29.229Z,3.38
2022-09-06T03:40:58.430Z,5.25
2022-09-06T03:43:28.317Z,3.70
2022-09-06T03:45:58.785Z,2.30
2022-09-06T03:48:29.599Z,2.72
2022-09-06T03:50:59.866Z,3.42
2022-09-06T03:53:30.615Z,2.22
2022-09-06T03:56:00.169Z,2.58
2022-09-06T03:58:33.117Z,1.92
2022-09-06T04:01:09.907Z,3.30
2022-09-06T04:03:39.704Z,2.67
2022-09-06T04:06:09.506Z,2.35
2022-09-06T04:08:39.405Z,2.92
2022-09-06T04:11:08.339Z,2.78
2022-09-06T04:13:37.761Z,3.80
2022-09-06T04:16:07.360Z,2.42
2022-09-06T04:18:35.999Z,4.38
2022-09-06T04:21:06.044Z,3.05
2022-09-06T04:23:39.644Z,5.35
2022-09-06T04:26:08.844Z,3.90
2022-09-06T04:28:37.492Z,2.40
2022-09-06T04:31:06.716Z,2.47
2022-09-06T04:33:37.439Z,3.42
2022-09-06T04:36:09.793Z,2.83
2022-09-06T04:38:43.344Z,2.30
2022-09-06T04:41:14.155Z,3.63
2022-09-06T04:43:43.233Z,4.32
2022-09-06T04:46:14.605Z,4.22
2022-09-06T04:48:43.265Z,2.65
2022-09-06T04:51:11.849Z,3.63
2022-09-06T04:53:40.433Z,2.92
2022-09-06T04:56:09.129Z,4.30
2022-09-06T04:58:37.644Z,3.95
2022-09-06T05:01:06.254Z,3.75
2022-09-06T05:03:34.924Z,2.50
2022-09-06T05:06:08.527Z,5.72
2022-09-06T05:08:40.845Z,2.42
2022-09-06T05:11:11.871Z,3.30
2022-09-06T05:13:41.060Z,4.53
2022-09-06T05:16:10.628Z,2.25
2022-09-06T05:18:39.879Z,4.05
2022-09-06T05:21:08.689Z,3.33
2022-09-06T05:23:39.885Z,2.53
2022-09-06T05:26:08.685Z,4.75
2022-09-06T05:28:37.281Z,2.85
2022-09-06T05:31:27.394Z,4.43
2022-09-06T05:33:57.160Z,2.72
2022-09-06T05:36:26.950Z,3.40
2022-09-06T05:38:56.949Z,3.13
2022-09-06T05:41:26.445Z,3.42
2022-09-06T05:43:55.086Z,2.45
2022-09-06T05:46:23.595Z,2.47
2022-09-06T05:48:57.182Z,3.03
2022-09-06T05:51:25.824Z,4.68
2022-09-06T05:53:54.564Z,3.22
2022-09-06T05:56:23.595Z,3.47
2022-09-06T05:58:52.309Z,2.63
2022-09-06T06:01:23.513Z,2.60
2022-09-06T06:03:58.125Z,4.32
2022-09-06T06:06:28.981Z,2.17
2022-09-06T06:08:57.904Z,2.10
2022-09-06T06:11:27.530Z,3.55
2022-09-06T06:13:56.435Z,2.08
2022-09-06T06:16:24.960Z,3.00
2022-09-06T06:18:53.545Z,6.03
2022-09-06T06:21:25.585Z,3.00
2022-09-06T06:24:05.606Z,2.40
2022-09-06T06:26:36.863Z,2.60
2022-09-06T06:29:09.165Z,3.50
2022-09-06T06:31:40.015Z,4.13
2022-09-06T06:34:09.624Z,4.18
2022-09-06T06:36:38.604Z,3.05
2022-09-06T06:39:09.647Z,2.33
2022-09-06T06:41:38.936Z,3.58
2022-09-06T06:44:07.686Z,3.08
2022-09-06T06:46:38.606Z,4.97
2022-09-06T06:49:07.330Z,2.70
2022-09-06T06:51:40.530Z,3.13
2022-09-06T06:54:09.014Z,3.53
2022-09-06T06:56:40.200Z,3.30
2022-09-06T06:59:09.284Z,3.40
2022-09-06T07:01:39.031Z,2.60
2022-09-06T07:04:09.665Z,2.85
2022-09-06T07:12:30.141Z,2.75
2022-09-06T07:14:58.616Z,3.47
2022-09-06T07:17:27.090Z,3.53
2022-09-06T07:22:44.686Z,3.85
2022-09-06T07:25:19.070Z,2.58
2022-09-06T07:27:50.373Z,3.22
2022-09-06T07:30:20.806Z,3.55
2022-09-06T07:32:49.865Z,2.97
2022-09-06T07:35:18.415Z,3.80
2022-09-06T07:37:56.990Z,4.22
2022-09-06T07:40:26.766Z,2.78
2022-09-06T07:42:59.200Z,5.65
2022-09-06T07:45:28.210Z,3.42
2022-09-06T07:48:00.760Z,4.13
2022-09-06T07:53:16.532Z,3.40
2022-09-06T07:58:16.372Z,2.63
2022-09-06T08:00:45.051Z,4.75
2022-09-06T08:03:14.465Z,3.40
2022-09-06T08:11:21.645Z,3.13
2022-09-06T08:13:57.650Z,1.98
2022-09-06T08:16:29.071Z,1.92
2022-09-06T08:19:00.165Z,4.78
2022-09-06T08:21:33.082Z,2.80
2022-09-06T08:24:08.209Z,2.83
2022-09-06T08:26:41.286Z,3.38
2022-09-06T08:29:11.273Z,2.67
2022-09-06T08:31:42.392Z,2.20
2022-09-06T08:34:13.535Z,2.05
2022-09-06T08:36:43.315Z,2.25
2022-09-06T08:39:12.880Z,2.03
2022-09-06T08:41:53.647Z,3.15
2022-09-06T08:47:22.072Z,3.13
2022-09-06T08:49:58.285Z,5.82
2022-09-06T08:53:13.102Z,3.05
2022-09-06T08:55:54.298Z,2.20
2022-09-06T08:58:40.856Z,4.22
2022-09-06T09:01:15.715Z,3.47
2022-09-06T09:03:45.804Z,4.00
2022-09-06T09:06:14.764Z,3.17
2022-09-06T09:09:05.165Z,2.97
2022-09-06T09:11:37.007Z,2.72
2022-09-06T09:14:23.704Z,4.00
2022-09-06T09:17:00.366Z,2.67
2022-09-06T09:19:32.645Z,2.33
2022-09-06T09:22:01.165Z,2.92
2022-09-06T09:24:29.787Z,2.13
2022-09-06T09:27:12.346Z,2.40
2022-09-06T09:32:51.565Z,3.10
2022-09-06T09:35:38.765Z,4.50
2022-09-06T09:38:21.812Z,4.28
2022-09-06T09:40:57.449Z,4.30
2022-09-06T09:44:00.032Z,3.25
2022-09-06T09:46:34.625Z,2.47
2022-09-06T09:49:13.328Z,3.13
2022-09-06T09:51:46.764Z,3.42
2022-09-06T09:54:30.997Z,4.32
2022-09-06T09:57:00.044Z,4.00
2022-09-06T09:59:44.475Z,2.58
2022-09-06T10:02:32.964Z,2.03
2022-09-06T10:05:25.800Z,3.75
2022-09-06T10:07:56.689Z,3.33
2022-09-06T10:10:31.736Z,2.10
2022-09-06T10:13:14.616Z,2.40
2022-09-06T10:15:44.546Z,2.60
2022-09-06T10:18:38.125Z,2.25
2022-09-06T10:21:14.266Z,1.70
2022-09-06T10:27:03.279Z,2.10
2022-09-06T10:32:34.709Z,2.50
2022-09-06T10:35:27.884Z,2.70
2022-09-06T10:38:21.944Z,2.08
2022-09-06T10:41:21.274Z,2.00
2022-09-06T10:44:25.124Z,1.63
2022-09-06T10:47:06.020Z,2.42
2022-09-06T10:49:35.724Z,3.15
2022-09-06T10:52:07.711Z,3.20
2022-09-06T10:54:41.926Z,2.92
2022-09-06T11:00:15.493Z,3.58
2022-09-06T11:05:55.085Z,2.72
2022-09-06T11:08:50.364Z,3.60
2022-09-06T11:11:28.160Z,1.70
2022-09-06T11:13:56.849Z,2.47
2022-09-06T11:16:33.784Z,2.08
2022-09-06T11:19:11.249Z,2.63
2022-09-06T11:22:11.089Z,2.70
2022-09-06T11:25:19.080Z,4.20
2022-09-06T11:27:57.779Z,4.53
2022-09-06T11:30:28.794Z,3.53
2022-09-06T11:33:22.748Z,2.45
2022-09-06T11:35:52.012Z,1.80
2022-09-06T11:38:28.845Z,2.78
2022-09-06T11:41:02.894Z,2.67
2022-09-06T11:43:48.843Z,5.10
2022-09-06T11:46:35.968Z,4.75
2022-09-06T11:49:10.443Z,4.65
2022-09-06T11:51:42.080Z,2.03
2022-09-06T11:54:16.684Z,2.40
2022-09-06T11:56:56.804Z,4.57
2022-09-06T11:59:35.724Z,2.42
2022-09-06T12:02:24.265Z,3.13
2022-09-06T12:05:08.359Z,7.95
2022-09-06T12:07:59.245Z,2.55
2022-09-06T12:10:50.924Z,2.50
2022-09-06T12:13:42.874Z,3.88
2022-09-06T12:16:15.711Z,3.05
2022-09-06T12:18:50.124Z,3.28
2022-09-06T12:21:54.285Z,2.17
2022-09-06T12:24:39.888Z,2.35
2022-09-06T12:27:17.337Z,2.00
2022-09-06T12:29:57.324Z,2.20
2022-09-06T12:32:43.584Z,2.10
2022-09-06T12:38:07.993Z,2.53
2022-09-06T12:40:48.903Z,2.47
2022-09-06T12:43:19.249Z,1.42
2022-09-06T12:45:54.447Z,1.73
2022-09-06T12:48:36.239Z,2.50
2022-09-06T12:51:17.505Z,2.67
2022-09-06T12:54:00.434Z,1.65
2022-09-06T12:56:31.207Z,2.95
2022-09-06T12:59:15.355Z,2.15
2022-09-06T13:01:52.225Z,2.97
2022-09-06T13:04:29.003Z,3.85
2022-09-06T13:06:59.404Z,3.10
2022-09-06T13:09:31.049Z,4.82
2022-09-06T13:12:18.935Z,3.60
2022-09-06T13:14:47.730Z,2.10
2022-09-06T13:17:27.686Z,2.30
2022-09-06T13:19:56.484Z,2.58
2022-09-06T13:22:43.724Z,1.48
2022-09-06T13:25:30.290Z,2.88
2022-09-06T13:27:59.399Z,1.75
2022-09-06T13:30:49.855Z,2.72
2022-09-06T13:33:28.372Z,3.70
2022-09-06T13:36:10.404Z,2.42
2022-09-06T13:38:44.335Z,2.67
2022-09-06T13:41:39.884Z,2.30
2022-09-06T13:44:17.444Z,3.08
2022-09-06T13:46:46.199Z,3.95
2022-09-06T13:49:15.404Z,2.70
2022-09-06T13:51:44.341Z,3.80
2022-09-06T13:54:15.272Z,2.67
2022-09-06T13:56:47.208Z,3.22
2022-09-06T13:59:16.365Z,2.88
2022-09-06T14:01:47.724Z,2.00
2022-09-06T14:04:22.405Z,2.05
2022-09-06T14:06:51.084Z,2.38
2022-09-06T14:09:19.775Z,2.00
2022-09-06T14:11:48.562Z,2.33
2022-09-06T14:14:19.029Z,2.72
2022-09-06T14:16:51.405Z,3.25
2022-09-06T14:19:20.115Z,2.78
2022-09-06T14:21:48.702Z,3.30
2022-09-06T14:24:17.646Z,2.67
2022-09-06T14:26:46.085Z,2.67
2022-09-06T14:29:14.766Z,2.13
2022-09-06T14:31:43.404Z,2.65
2022-09-06T14:34:12.434Z,2.33
2022-09-06T14:36:41.449Z,3.30
2022-09-06T14:39:09.925Z,1.88
2022-09-06T14:41:38.506Z,3.67
2022-09-06T14:44:07.024Z,2.80
2022-09-06T14:46:35.569Z,4.68
2022-09-06T14:49:09.444Z,8.52
2022-09-06T14:51:39.564Z,9.10
2022-09-06T14:54:11.880Z,11.85
2022-09-06T14:56:42.791Z,12.00
2022-09-06T14:59:11.970Z,11.73
2022-09-06T15:01:42.201Z,9.40
2022-09-06T15:04:12.827Z,11.40
2022-09-06T15:06:45.871Z,9.45
2022-09-06T15:09:18.565Z,9.32
2022-09-06T15:11:49.782Z,8.68
2022-09-06T15:14:26.928Z,11.23
2022-09-06T15:17:00.939Z,7.72
2022-09-06T15:19:31.548Z,9.43
2022-09-06T15:22:00.170Z,8.98
2022-09-06T15:24:29.694Z,11.68
2022-09-06T15:26:58.670Z,10.95
2022-09-06T15:29:28.527Z,10.98
2022-09-06T15:31:58.124Z,9.95
2022-09-06T15:34:27.890Z,14.68
2022-09-06T15:36:57.611Z,7.90
2022-09-06T15:39:26.119Z,8.82
2022-09-06T15:41:54.605Z,9.45
2022-09-06T15:44:23.249Z,10.13
2022-09-06T15:46:58.644Z,9.90
2022-09-06T15:49:33.314Z,10.02
2022-09-06T15:52:03.990Z,8.32
2022-09-06T15:54:50.647Z,5.88
2022-09-06T15:57:19.550Z,7.95
2022-09-06T15:59:48.986Z,8.13
2022-09-06T16:02:17.884Z,7.18
2022-09-06T16:04:47.585Z,7.65
2022-09-06T16:07:16.329Z,6.25
2022-09-06T16:09:44.861Z,8.35
2022-09-06T16:12:13.329Z,9.40
2022-09-06T16:14:41.805Z,7.63
2022-09-06T16:17:10.447Z,5.53
2022-09-06T16:19:39.085Z,8.45
2022-09-06T16:22:07.683Z,5.55
2022-09-06T16:24:36.359Z,7.60
2022-09-06T16:27:05.005Z,6.28
2022-09-06T16:29:33.585Z,7.68
2022-09-06T16:32:02.135Z,5.78
2022-09-06T16:34:30.689Z,5.15
2022-09-06T16:36:59.370Z,4.93
2022-09-06T16:39:28.201Z,6.72
2022-09-06T16:41:56.824Z,5.10
2022-09-06T16:44:25.660Z,4.50
2022-09-06T16:46:54.955Z,7.38
2022-09-06T16:49:24.525Z,5.93
2022-09-06T16:51:53.444Z,7.35
2022-09-06T16:54:22.626Z,4.93
2022-09-06T16:56:51.109Z,5.20
2022-09-06T16:59:20.053Z,3.42
2022-09-06T17:01:48.719Z,5.93
2022-09-06T17:04:17.612Z,5.15
2022-09-06T17:06:46.662Z,4.72
2022-09-06T17:09:19.729Z,6.93
2022-09-06T17:11:52.328Z,4.47
2022-09-06T17:14:20.830Z,6.88
2022-09-06T17:17:08.188Z,3.20
2022-09-06T17:19:42.450Z,6.75
2022-09-06T17:22:14.245Z,6.68
2022-09-06T17:24:43.854Z,5.22
2022-09-06T17:27:12.414Z,4.40
2022-09-06T17:29:41.131Z,7.40
2022-09-06T17:32:12.825Z,5.32
2022-09-06T17:34:42.269Z,7.10
2022-09-06T17:37:10.925Z,9.43
2022-09-06T17:39:40.043Z,4.53
2022-09-06T17:42:08.770Z,7.20
2022-09-06T17:44:37.489Z,5.38
2022-09-06T17:47:12.999Z,4.32
2022-09-06T17:49:43.751Z,6.28
2022-09-06T17:52:12.934Z,5.88
2022-09-06T17:54:41.671Z,5.18
2022-09-06T17:57:10.292Z,3.67
2022-09-06T17:59:39.581Z,6.70
2022-09-06T18:02:08.689Z,4.03
2022-09-06T18:04:37.884Z,5.32
2022-09-06T18:07:06.449Z,4.78
2022-09-06T18:09:34.925Z,3.15
2022-09-06T18:12:03.440Z,3.55
2022-09-06T18:14:31.990Z,5.32
2022-09-06T18:17:00.841Z,4.57
2022-09-06T18:19:29.370Z,3.92
2022-09-06T18:21:58.765Z,5.63
2022-09-06T18:24:27.364Z,4.15
2022-09-06T18:26:56.504Z,4.35
2022-09-06T18:29:25.129Z,4.07
2022-09-06T18:31:55.178Z,3.88
2022-09-06T18:34:24.041Z,5.38
2022-09-06T18:36:52.691Z,3.35
2022-09-06T18:39:21.657Z,4.65
2022-09-06T18:42:02.294Z,4.40
2022-09-06T18:44:33.507Z,3.85
2022-09-06T18:47:03.281Z,3.70
2022-09-06T18:49:32.014Z,3.25
2022-09-06T18:52:01.250Z,3.00
2022-09-06T18:54:30.355Z,2.65
2022-09-06T18:56:59.424Z,2.70
2022-09-06T18:59:28.005Z,2.72
2022-09-06T19:01:56.770Z,4.00
2022-09-06T19:04:25.384Z,2.97
2022-09-06T19:06:54.289Z,2.85
2022-09-06T19:09:23.988Z,2.97
2022-09-06T19:11:54.044Z,2.38
2022-09-06T19:14:23.267Z,3.05
2022-09-06T19:16:54.951Z,2.95
2022-09-06T19:19:25.261Z,3.63
2022-09-06T19:21:54.714Z,5.55
2022-09-06T19:24:25.796Z,4.57
2022-09-06T19:26:54.594Z,4.28
2022-09-06T19:29:24.354Z,4.32
2022-09-06T19:31:54.280Z,6.70
2022-09-06T19:34:23.267Z,4.43
2022-09-06T19:36:56.209Z,3.17
2022-09-06T19:39:33.488Z,4.63
2022-09-06T19:42:05.406Z,2.58
2022-09-06T19:44:34.740Z,5.20
2022-09-06T19:47:07.738Z,4.38
2022-09-06T19:49:36.970Z,2.80
2022-09-06T19:52:10.543Z,2.78
2022-09-06T19:54:40.375Z,4.10
2022-09-06T19:57:09.130Z,2.63
2022-09-06T19:59:37.999Z,3.22
2022-09-06T20:02:06.823Z,3.33
2022-09-06T20:04:35.581Z,4.32
2022-09-06T20:07:04.399Z,4.07
2022-09-06T20:09:33.155Z,3.47
2022-09-06T20:12:01.955Z,3.05
2022-09-06T20:14:30.655Z,2.35
2022-09-06T20:17:16.492Z,3.70
2022-09-06T20:19:51.748Z,3.17
2022-09-06T20:22:20.504Z,2.35
2022-09-06T20:24:50.260Z,3.38
2022-09-06T20:27:19.675Z,2.85
2022-09-06T20:29:48.515Z,2.88
2022-09-06T20:32:17.245Z,2.25
2022-09-06T20:34:46.455Z,2.35
2022-09-06T20:37:15.349Z,3.10
2022-09-06T20:39:44.102Z,4.53
2022-09-06T20:42:13.596Z,2.25
2022-09-06T20:44:42.564Z,1.92
2022-09-06T20:47:12.509Z,2.47
2022-09-06T20:49:41.139Z,2.40
2022-09-06T20:52:09.680Z,3.15
2022-09-06T20:54:38.509Z,1.70
2022-09-06T20:57:07.435Z,1.92
2022-09-06T20:59:36.234Z,1.77
2022-09-06T21:02:05.241Z,2.08
2022-09-06T21:04:36.909Z,1.70
2022-09-06T21:07:05.879Z,2.17
2022-09-06T21:09:34.415Z,1.90
2022-09-06T21:12:05.671Z,2.65
2022-09-06T21:14:34.610Z,2.47
2022-09-06T21:17:03.695Z,2.00
2022-09-06T21:19:32.637Z,1.45
2022-09-06T21:22:02.186Z,1.35
2022-09-06T21:24:31.489Z,1.45
2022-09-06T21:30:48.364Z,2.38
2022-09-06T21:33:17.758Z,1.88
2022-09-06T21:35:46.880Z,1.65
2022-09-06T21:38:16.669Z,1.55
2022-09-06T21:40:45.975Z,2.20
2022-09-06T21:43:15.765Z,2.22
2022-09-06T21:45:45.494Z,3.03
2022-09-06T21:48:19.514Z,3.05
2022-09-06T21:50:52.585Z,2.40
2022-09-06T21:53:24.280Z,2.33
2022-09-06T21:55:53.525Z,3.30
2022-09-06T21:58:22.978Z,1.73
2022-09-06T22:00:57.913Z,2.25
2022-09-06T22:03:28.785Z,2.75
2022-09-06T22:05:59.350Z,2.15
2022-09-06T22:08:28.905Z,2.28
2022-09-06T22:11:08.646Z,2.97
2022-09-06T22:13:38.385Z,2.80
2022-09-06T22:16:08.455Z,1.70
2022-09-06T22:18:37.750Z,2.28
2022-09-06T22:21:13.270Z,2.20
2022-09-06T22:23:43.325Z,1.90
2022-09-06T22:26:14.629Z,2.10
2022-09-06T22:28:44.318Z,2.00
2022-09-06T22:31:13.756Z,1.92
2022-09-06T22:33:42.894Z,2.25
2022-09-06T22:36:12.634Z,3.03
2022-09-06T22:38:42.244Z,3.47
2022-09-06T22:41:11.992Z,3.05
2022-09-06T22:43:41.429Z,2.40
2022-09-06T22:46:14.157Z,1.98
2022-09-06T22:48:43.517Z,2.15
2022-09-06T22:51:13.273Z,2.00
2022-09-06T22:53:42.719Z,4.05
2022-09-06T22:56:11.883Z,2.55
2022-09-06T22:58:41.099Z,2.28
2022-09-06T23:01:18.273Z,2.47
2022-09-06T23:03:50.922Z,3.55
2022-09-06T23:06:20.299Z,1.60
2022-09-06T23:08:49.653Z,3.95
2022-09-06T23:11:20.736Z,3.00
2022-09-06T23:13:50.058Z,3.30
2022-09-06T23:16:21.169Z,1.77
2022-09-06T23:18:51.360Z,2.92
2022-09-06T23:21:23.563Z,2.53
2022-09-06T23:23:54.541Z,4.90
2022-09-06T23:26:26.930Z,1.67
2022-09-06T23:28:59.014Z,3.27
2022-09-06T23:31:30.733Z,4.72
2022-09-06T23:34:01.599Z,4.00
2022-09-06T23:36:31.185Z,2.53
2022-09-06T23:39:01.099Z,3.20
2022-09-06T23:41:30.704Z,3.88
2022-09-06T23:44:00.141Z,3.17
2022-09-06T23:46:29.768Z,4.32
2022-09-06T23:48:59.151Z,3.13
2022-09-06T23:51:28.548Z,2.92
2022-09-06T23:53:58.064Z,4.18
2022-09-06T23:56:27.590Z,5.22
2022-09-06T23:58:57.099Z,3.10
